createdAt,value
2023-05-15T00:04:19.693Z,100.00
2023-05-15T00:09:42.227Z,100.00
2023-05-15T00:15:04.342Z,100.00
2023-05-15T00:20:27.570Z,100.00
2023-05-15T00:25:49.821Z,100.00
2023-05-15T00:31:13.752Z,100.00
2023-05-15T00:36:36.282Z,100.00
2023-05-15T00:42:02.217Z,100.00
2023-05-15T00:47:26.891Z,100.00
2023-05-15T00:52:49.964Z,100.00
2023-05-15T00:58:12.786Z,100.00
2023-05-15T01:03:35.982Z,100.00
2023-05-15T01:09:02.958Z,100.00
2023-05-15T01:14:25.473Z,100.00
2023-05-15T01:19:51.913Z,100.00
2023-05-15T01:25:30.976Z,100.00
2023-05-15T01:30:57.120Z,100.00
2023-05-15T01:36:30.943Z,100.00
2023-05-15T01:42:03.824Z,100.00
2023-05-15T01:47:32.522Z,100.00
2023-05-15T01:52:59.832Z,100.00
2023-05-15T01:58:23.386Z,100.00
2023-05-15T02:03:47.873Z,100.00
2023-05-15T02:09:11.649Z,100.00
2023-05-15T02:14:37.226Z,100.00
2023-05-15T02:20:00.406Z,100.00
2023-05-15T02:25:49.059Z,100.00
2023-05-15T02:31:24.461Z,100.00
2023-05-15T02:36:49.522Z,100.00
2023-05-15T02:42:13.914Z,100.00
2023-05-15T02:47:37.666Z,100.00
2023-05-15T02:53:08.117Z,100.00
2023-05-15T02:58:30.864Z,100.00
2023-05-15T03:03:53.613Z,100.00
2023-05-15T03:09:17.215Z,100.00
2023-05-15T03:14:39.933Z,100.00
2023-05-15T03:20:02.395Z,100.00
2023-05-15T03:25:27.144Z,100.00
2023-05-15T03:30:50.363Z,100.00
2023-05-15T03:36:12.924Z,100.00
2023-05-15T03:41:36.036Z,100.00
2023-05-15T03:46:58.743Z,98.53
2023-05-15T03:52:21.761Z,100.00
2023-05-15T03:57:44.302Z,100.00
2023-05-15T04:03:08.857Z,100.00
2023-05-15T04:08:31.084Z,65.53
2023-05-15T04:13:53.324Z,55.72
2023-05-15T04:19:15.639Z,51.57
2023-05-15T04:24:38.234Z,48.82
2023-05-15T04:30:00.654Z,45.10
2023-05-15T04:35:22.954Z,44.61
2023-05-15T04:40:45.171Z,42.50
2023-05-15T04:46:07.062Z,39.67
2023-05-15T04:51:29.164Z,40.02
2023-05-15T04:56:51.333Z,37.52
2023-05-15T05:02:13.357Z,38.80
2023-05-15T05:07:36.287Z,37.50
2023-05-15T05:13:12.099Z,36.17
2023-05-15T05:18:34.752Z,36.12
2023-05-15T05:23:57.077Z,35.60
2023-05-15T05:29:19.082Z,34.31
2023-05-15T05:34:41.178Z,34.59
2023-05-15T05:40:03.382Z,35.10
2023-05-15T05:45:26.006Z,33.86
2023-05-15T05:50:48.302Z,34.35
2023-05-15T05:56:11.038Z,34.87
2023-05-15T06:01:33.358Z,32.55
2023-05-15T06:06:55.854Z,32.59
2023-05-15T06:12:17.800Z,33.55
2023-05-15T06:17:40.620Z,31.63
2023-05-15T06:23:03.460Z,34.39
2023-05-15T06:28:25.133Z,32.14
2023-05-15T06:33:47.228Z,29.62
2023-05-15T06:39:11.340Z,31.76
2023-05-15T06:44:33.988Z,30.78
2023-05-15T06:49:56.217Z,28.76
2023-05-15T06:55:17.882Z,28.72
2023-05-15T07:00:41.483Z,27.78
2023-05-15T07:06:03.186Z,27.32
2023-05-15T07:11:25.678Z,30.24
2023-05-15T07:16:48.156Z,31.54
2023-05-15T07:22:10.069Z,30.49
2023-05-15T07:27:32.575Z,31.98
2023-05-15T07:32:54.720Z,28.77
2023-05-15T07:38:16.895Z,27.45
2023-05-15T07:43:38.893Z,32.94
2023-05-15T07:49:00.692Z,32.16
2023-05-15T07:54:22.892Z,31.42
2023-05-15T07:59:44.983Z,33.90
2023-05-15T08:05:07.716Z,34.74
2023-05-15T08:10:29.626Z,31.98
2023-05-15T08:15:52.028Z,28.66
2023-05-15T08:21:14.262Z,31.61
2023-05-15T08:26:36.429Z,29.86
2023-05-15T08:31:58.841Z,29.50
2023-05-15T08:37:22.885Z,30.97
2023-05-15T08:42:57.315Z,28.53
2023-05-15T08:48:21.878Z,28.59
2023-05-15T08:53:44.603Z,28.01
2023-05-15T08:59:06.888Z,28.42
2023-05-15T09:04:29.882Z,31.05
2023-05-15T09:09:54.653Z,31.02
2023-05-15T09:15:18.750Z,34.07
2023-05-15T09:20:41.970Z,32.35
2023-05-15T09:26:05.249Z,32.91
2023-05-15T09:31:28.672Z,33.75
2023-05-15T09:36:50.732Z,33.06
2023-05-15T09:42:16.508Z,33.57
2023-05-15T09:47:39.550Z,33.47
2023-05-15T09:53:01.781Z,34.97
2023-05-15T09:58:27.481Z,34.44
2023-05-15T10:04:03.009Z,33.41
2023-05-15T10:09:32.781Z,33.18
2023-05-15T10:14:57.774Z,33.79
2023-05-15T10:20:22.132Z,32.32
2023-05-15T10:25:58.197Z,34.77
2023-05-15T10:31:24.554Z,35.77
2023-05-15T10:36:56.102Z,33.87
2023-05-15T10:42:19.937Z,35.32
2023-05-15T10:47:45.118Z,35.98
2023-05-15T10:53:09.704Z,33.44
2023-05-15T10:58:31.854Z,33.66
2023-05-15T11:04:11.796Z,35.84
2023-05-15T11:09:35.868Z,34.98
2023-05-15T11:14:57.718Z,32.89
2023-05-15T11:20:19.675Z,36.12
2023-05-15T11:25:41.912Z,33.85
2023-05-15T11:31:07.409Z,32.76
2023-05-15T11:36:29.744Z,34.16
2023-05-15T11:41:51.833Z,33.15
2023-05-15T11:47:14.291Z,33.95
2023-05-15T11:52:37.179Z,32.58
2023-05-15T11:57:59.069Z,32.19
2023-05-15T12:03:33.061Z,34.03
2023-05-15T12:08:55.406Z,34.88
2023-05-15T12:14:17.229Z,34.98
2023-05-15T12:19:39.861Z,33.71
2023-05-15T12:25:02.339Z,35.05
2023-05-15T12:30:25.484Z,34.13
2023-05-15T12:36:01.191Z,32.39
2023-05-15T12:41:30.065Z,32.86
2023-05-15T12:46:55.491Z,35.08
2023-05-15T12:52:17.744Z,35.19
2023-05-15T12:57:39.786Z,33.05
2023-05-15T13:03:02.821Z,35.69
2023-05-15T13:08:25.060Z,35.62
2023-05-15T13:13:51.015Z,34.49
2023-05-15T13:19:14.879Z,33.36
2023-05-15T13:24:36.879Z,33.87
2023-05-15T13:29:58.721Z,32.82
2023-05-15T13:35:21.043Z,33.84
2023-05-15T13:40:42.873Z,34.34
2023-05-15T13:46:05.308Z,35.21
2023-05-15T13:51:27.581Z,34.53
2023-05-15T13:56:49.158Z,36.62
2023-05-15T14:02:11.679Z,38.17
2023-05-15T14:07:33.782Z,37.56
2023-05-15T14:12:55.743Z,35.40
2023-05-15T14:18:17.869Z,36.36
2023-05-15T14:23:39.842Z,38.38
2023-05-15T14:29:01.970Z,36.91
2023-05-15T14:34:24.069Z,38.81
2023-05-15T14:39:46.162Z,38.75
2023-05-15T14:45:08.665Z,36.98
2023-05-15T14:50:30.637Z,36.56
2023-05-15T14:55:52.739Z,37.90
2023-05-15T15:01:14.863Z,36.93
2023-05-15T15:06:36.763Z,35.74
2023-05-15T15:11:58.797Z,39.04
2023-05-15T15:17:20.956Z,35.37
2023-05-15T15:22:43.450Z,35.32
2023-05-15T15:28:05.754Z,37.67
2023-05-15T15:33:27.510Z,36.20
2023-05-15T15:38:49.333Z,36.82
2023-05-15T15:44:11.240Z,38.42
2023-05-15T15:49:33.193Z,41.10
2023-05-15T15:54:55.367Z,42.36
2023-05-15T16:00:17.905Z,44.38
2023-05-15T16:05:39.666Z,45.59
2023-05-15T16:11:01.831Z,43.79
2023-05-15T16:16:24.225Z,43.58
2023-05-15T16:21:46.342Z,45.63
2023-05-15T16:27:08.392Z,46.60
2023-05-15T16:32:30.392Z,50.06
2023-05-15T16:37:52.535Z,50.32
2023-05-15T16:43:14.890Z,54.22
2023-05-15T16:48:36.908Z,48.05
2023-05-15T16:54:00.115Z,47.16
2023-05-15T16:59:22.397Z,46.95
2023-05-15T17:04:44.212Z,47.15
2023-05-15T17:10:10.046Z,51.96
2023-05-15T17:15:32.134Z,56.73
2023-05-15T17:20:53.973Z,61.85
2023-05-15T17:26:16.249Z,62.02
2023-05-15T17:31:39.628Z,66.73
2023-05-15T17:37:01.171Z,66.71
2023-05-15T17:42:25.638Z,68.00
2023-05-15T17:47:48.041Z,76.65
2023-05-15T17:53:10.224Z,74.44
2023-05-15T17:58:33.637Z,79.87
2023-05-15T18:03:56.639Z,87.23
2023-05-15T18:09:23.903Z,84.71
2023-05-15T18:14:46.698Z,90.50
2023-05-15T18:20:10.702Z,92.28
2023-05-15T18:25:37.381Z,93.64
2023-05-15T18:30:59.798Z,100.00
2023-05-15T18:36:22.406Z,99.90
2023-05-15T18:41:46.658Z,100.00
2023-05-15T18:47:12.253Z,100.00
2023-05-15T18:52:33.841Z,100.00
2023-05-15T18:57:57.458Z,100.00
2023-05-15T19:03:21.549Z,100.00
2023-05-15T19:08:43.966Z,100.00
2023-05-15T19:14:08.166Z,100.00
2023-05-15T19:19:36.395Z,100.00
2023-05-15T19:25:01.714Z,100.00
2023-05-15T19:30:26.123Z,100.00
2023-05-15T19:35:48.674Z,100.00
2023-05-15T19:41:13.210Z,100.00
2023-05-15T19:46:36.105Z,100.00
2023-05-15T19:51:57.951Z,100.00
2023-05-15T19:57:20.209Z,100.00
2023-05-15T20:02:42.424Z,100.00
2023-05-15T20:08:05.350Z,100.00
2023-05-15T20:13:27.462Z,100.00
2023-05-15T20:18:55.771Z,100.00
2023-05-15T20:24:19.004Z,100.00
2023-05-15T20:29:41.732Z,100.00
2023-05-15T20:35:04.158Z,100.00
2023-05-15T20:40:26.933Z,100.00
2023-05-15T20:45:49.033Z,100.00
2023-05-15T20:51:11.565Z,100.00
2023-05-15T20:56:33.821Z,100.00
2023-05-15T21:01:56.367Z,100.00
2023-05-15T21:07:18.492Z,100.00
2023-05-15T21:12:41.381Z,100.00
2023-05-15T21:18:04.601Z,100.00
2023-05-15T21:23:26.686Z,100.00
2023-05-15T21:28:49.271Z,100.00
2023-05-15T21:34:12.481Z,100.00
2023-05-15T21:39:34.881Z,100.00
2023-05-15T21:44:57.267Z,100.00
2023-05-15T21:50:20.044Z,100.00
2023-05-15T21:55:42.051Z,100.00
2023-05-15T22:01:04.461Z,100.00
2023-05-15T22:06:27.026Z,100.00
2023-05-15T22:11:49.535Z,100.00
2023-05-15T22:17:11.641Z,100.00
2023-05-15T22:22:33.845Z,100.00
2023-05-15T22:27:56.577Z,100.00
2023-05-15T22:33:19.090Z,100.00
2023-05-15T22:38:41.729Z,100.00
2023-05-15T22:44:05.495Z,100.00
2023-05-15T22:49:27.514Z,100.00
2023-05-15T22:55:27.483Z,100.00
2023-05-15T23:00:49.506Z,100.00
2023-05-15T23:06:16.632Z,100.00
2023-05-15T23:11:38.748Z,100.00
2023-05-15T23:17:01.265Z,100.00
2023-05-15T23:22:23.724Z,100.00
2023-05-15T23:27:46.105Z,100.00
2023-05-15T23:33:08.293Z,100.00
2023-05-15T23:38:31.329Z,100.00
2023-05-15T23:43:54.877Z,100.00
2023-05-15T23:49:17.539Z,100.00
2023-05-15T23:54:40.953Z,100.00
